sensor_id;sensor_type;location;lat;lon;timestamp;P1;durP1;ratioP1;P2;durP2;ratioP2
4652;SDS011;9900;48.738;9.306;2023-11-19T00:00:31;10.70;;;6.00;;
4652;SDS011;9900;48.738;9.306;2023-11-19T00:03:00;6.53;;;5.63;;
4652;SDS011;9900;48.738;9.306;2023-11-19T00:05:29;8.63;;;5.93;;
4652;SDS011;9900;48.738;9.306;2023-11-19T00:07:58;9.37;;;6.60;;
4652;SDS011;9900;48.738;9.306;2023-11-19T00:10:27;13.17;;;6.90;;
4652;SDS011;9900;48.738;9.306;2023-11-19T00:12:57;7.70;;;6.03;;
4652;SDS011;9900;48.738;9.306;2023-11-19T00:15:26;9.37;;;5.97;;
4652;SDS011;9900;48.738;9.306;2023-11-19T00:17:55;8.00;;;6.70;;
4652;SDS011;9900;48.738;9.306;2023-11-19T00:20:28;9.27;;;6.67;;
4652;SDS011;9900;48.738;9.306;2023-11-19T00:22:57;10.40;;;6.70;;
4652;SDS011;9900;48.738;9.306;2023-11-19T00:25:26;6.90;;;5.53;;
4652;SDS011;9900;48.738;9.306;2023-11-19T00:27:55;7.30;;;5.33;;
4652;SDS011;9900;48.738;9.306;2023-11-19T00:30:25;7.67;;;6.30;;
4652;SDS011;9900;48.738;9.306;2023-11-19T00:32:54;7.10;;;5.80;;
4652;SDS011;9900;48.738;9.306;2023-11-19T00:35:23;6.93;;;5.80;;
4652;SDS011;9900;48.738;9.306;2023-11-19T00:37:52;8.37;;;6.47;;
4652;SDS011;9900;48.738;9.306;2023-11-19T00:40:21;6.00;;;5.37;;
4652;SDS011;9900;48.738;9.306;2023-11-19T00:42:51;6.40;;;5.50;;
4652;SDS011;9900;48.738;9.306;2023-11-19T00:45:20;7.70;;;6.40;;
4652;SDS011;9900;48.738;9.306;2023-11-19T00:47:50;7.93;;;5.40;;
4652;SDS011;9900;48.738;9.306;2023-11-19T00:50:19;10.77;;;6.13;;
4652;SDS011;9900;48.738;9.306;2023-11-19T00:52:48;9.13;;;5.87;;
4652;SDS011;9900;48.738;9.306;2023-11-19T00:55:17;8.00;;;6.00;;
4652;SDS011;9900;48.738;9.306;2023-11-19T00:57:46;11.60;;;6.70;;
4652;SDS011;9900;48.738;9.306;2023-11-19T01:00:15;9.47;;;6.13;;
4652;SDS011;9900;48.738;9.306;2023-11-19T01:02:47;6.50;;;5.40;;
4652;SDS011;9900;48.738;9.306;2023-11-19T01:05:20;11.03;;;6.43;;
4652;SDS011;9900;48.738;9.306;2023-11-19T01:07:50;12.43;;;6.10;;
4652;SDS011;9900;48.738;9.306;2023-11-19T01:10:22;10.00;;;5.40;;
4652;SDS011;9900;48.738;9.306;2023-11-19T01:12:52;5.43;;;4.30;;
4652;SDS011;9900;48.738;9.306;2023-11-19T01:15:21;5.63;;;4.70;;
4652;SDS011;9900;48.738;9.306;2023-11-19T01:17:50;10.67;;;4.17;;
4652;SDS011;9900;48.738;9.306;2023-11-19T01:20:22;6.10;;;4.60;;
4652;SDS011;9900;48.738;9.306;2023-11-19T01:22:50;5.57;;;4.20;;
4652;SDS011;9900;48.738;9.306;2023-11-19T01:25:19;7.90;;;4.60;;
4652;SDS011;9900;48.738;9.306;2023-11-19T01:27:48;4.80;;;4.00;;
4652;SDS011;9900;48.738;9.306;2023-11-19T01:30:17;7.93;;;4.23;;
4652;SDS011;9900;48.738;9.306;2023-11-19T01:32:47;8.90;;;4.03;;
4652;SDS011;9900;48.738;9.306;2023-11-19T01:35:16;10.33;;;4.03;;
4652;SDS011;9900;48.738;9.306;2023-11-19T01:37:46;7.47;;;3.80;;
4652;SDS011;9900;48.738;9.306;2023-11-19T01:40:15;5.57;;;3.90;;
4652;SDS011;9900;48.738;9.306;2023-11-19T01:42:44;4.67;;;3.50;;
4652;SDS011;9900;48.738;9.306;2023-11-19T01:45:21;4.40;;;3.63;;
4652;SDS011;9900;48.738;9.306;2023-11-19T01:47:58;6.10;;;4.40;;
4652;SDS011;9900;48.738;9.306;2023-11-19T01:50:29;4.93;;;3.67;;
4652;SDS011;9900;48.738;9.306;2023-11-19T01:53:00;5.33;;;4.20;;
4652;SDS011;9900;48.738;9.306;2023-11-19T01:55:29;6.27;;;4.30;;
4652;SDS011;9900;48.738;9.306;2023-11-19T01:57:59;7.30;;;3.90;;
4652;SDS011;9900;48.738;9.306;2023-11-19T02:00:29;4.03;;;3.50;;
4652;SDS011;9900;48.738;9.306;2023-11-19T02:03:00;6.73;;;3.70;;
4652;SDS011;9900;48.738;9.306;2023-11-19T02:05:31;5.70;;;4.10;;
4652;SDS011;9900;48.738;9.306;2023-11-19T02:08:02;4.30;;;3.83;;
4652;SDS011;9900;48.738;9.306;2023-11-19T02:10:31;6.30;;;4.50;;
4652;SDS011;9900;48.738;9.306;2023-11-19T02:13:00;5.03;;;3.77;;
4652;SDS011;9900;48.738;9.306;2023-11-19T02:15:32;5.57;;;4.00;;
4652;SDS011;9900;48.738;9.306;2023-11-19T02:18:17;5.30;;;3.47;;
4652;SDS011;9900;48.738;9.306;2023-11-19T02:20:47;4.30;;;3.40;;
4652;SDS011;9900;48.738;9.306;2023-11-19T02:23:18;3.77;;;3.37;;
4652;SDS011;9900;48.738;9.306;2023-11-19T02:25:52;5.70;;;4.20;;
4652;SDS011;9900;48.738;9.306;2023-11-19T02:28:30;2.97;;;2.70;;
4652;SDS011;9900;48.738;9.306;2023-11-19T02:31:00;3.63;;;3.33;;
4652;SDS011;9900;48.738;9.306;2023-11-19T02:33:29;3.07;;;2.87;;
4652;SDS011;9900;48.738;9.306;2023-11-19T02:35:57;3.60;;;2.70;;
4652;SDS011;9900;48.738;9.306;2023-11-19T02:38:26;5.40;;;3.27;;
4652;SDS011;9900;48.738;9.306;2023-11-19T02:40:55;4.20;;;3.30;;
4652;SDS011;9900;48.738;9.306;2023-11-19T02:43:24;6.17;;;3.13;;
4652;SDS011;9900;48.738;9.306;2023-11-19T02:45:54;2.67;;;2.47;;
4652;SDS011;9900;48.738;9.306;2023-11-19T02:48:24;3.13;;;2.80;;
4652;SDS011;9900;48.738;9.306;2023-11-19T02:50:52;3.40;;;3.03;;
4652;SDS011;9900;48.738;9.306;2023-11-19T02:53:21;3.53;;;3.00;;
4652;SDS011;9900;48.738;9.306;2023-11-19T02:55:50;5.10;;;3.57;;
4652;SDS011;9900;48.738;9.306;2023-11-19T02:58:19;4.47;;;2.90;;
4652;SDS011;9900;48.738;9.306;2023-11-19T03:00:51;4.07;;;2.60;;
4652;SDS011;9900;48.738;9.306;2023-11-19T03:03:26;3.40;;;2.80;;
4652;SDS011;9900;48.738;9.306;2023-11-19T03:05:58;7.53;;;3.70;;
4652;SDS011;9900;48.738;9.306;2023-11-19T03:08:32;4.67;;;3.20;;
4652;SDS011;9900;48.738;9.306;2023-11-19T03:11:01;6.10;;;3.57;;
4652;SDS011;9900;48.738;9.306;2023-11-19T03:13:29;2.80;;;2.60;;
4652;SDS011;9900;48.738;9.306;2023-11-19T03:15:58;2.30;;;2.10;;
4652;SDS011;9900;48.738;9.306;2023-11-19T03:18:29;3.20;;;2.90;;
4652;SDS011;9900;48.738;9.306;2023-11-19T03:20:57;3.40;;;2.80;;
4652;SDS011;9900;48.738;9.306;2023-11-19T03:23:27;2.60;;;2.40;;
4652;SDS011;9900;48.738;9.306;2023-11-19T03:25:56;2.47;;;2.27;;
4652;SDS011;9900;48.738;9.306;2023-11-19T03:28:25;3.07;;;2.70;;
4652;SDS011;9900;48.738;9.306;2023-11-19T03:30:54;2.83;;;2.57;;
4652;SDS011;9900;48.738;9.306;2023-11-19T03:33:23;4.17;;;3.00;;
4652;SDS011;9900;48.738;9.306;2023-11-19T03:35:57;5.07;;;3.53;;
4652;SDS011;9900;48.738;9.306;2023-11-19T03:38:26;3.53;;;2.60;;
4652;SDS011;9900;48.738;9.306;2023-11-19T03:40:54;4.30;;;2.90;;
4652;SDS011;9900;48.738;9.306;2023-11-19T03:43:23;2.50;;;2.30;;
4652;SDS011;9900;48.738;9.306;2023-11-19T03:45:52;3.23;;;2.93;;
4652;SDS011;9900;48.738;9.306;2023-11-19T03:48:21;4.43;;;2.67;;
4652;SDS011;9900;48.738;9.306;2023-11-19T03:50:49;2.57;;;2.37;;
4652;SDS011;9900;48.738;9.306;2023-11-19T03:53:20;6.20;;;2.17;;
4652;SDS011;9900;48.738;9.306;2023-11-19T03:55:48;2.03;;;1.87;;
4652;SDS011;9900;48.738;9.306;2023-11-19T03:58:17;2.60;;;1.60;;
4652;SDS011;9900;48.738;9.306;2023-11-19T04:00:46;3.40;;;1.83;;
4652;SDS011;9900;48.738;9.306;2023-11-19T04:03:15;4.40;;;1.87;;
4652;SDS011;9900;48.738;9.306;2023-11-19T04:05:43;6.13;;;2.47;;
4652;SDS011;9900;48.738;9.306;2023-11-19T04:08:12;2.97;;;2.10;;
4652;SDS011;9900;48.738;9.306;2023-11-19T04:10:42;1.60;;;1.50;;
4652;SDS011;9900;48.738;9.306;2023-11-19T04:13:11;3.90;;;1.90;;
4652;SDS011;9900;48.738;9.306;2023-11-19T04:15:40;1.97;;;1.87;;
4652;SDS011;9900;48.738;9.306;2023-11-19T04:18:09;2.90;;;2.00;;
4652;SDS011;9900;48.738;9.306;2023-11-19T04:20:37;3.53;;;1.87;;
4652;SDS011;9900;48.738;9.306;2023-11-19T04:23:06;1.80;;;1.70;;
4652;SDS011;9900;48.738;9.306;2023-11-19T04:25:35;2.73;;;1.53;;
4652;SDS011;9900;48.738;9.306;2023-11-19T04:28:05;3.63;;;1.83;;
4652;SDS011;9900;48.738;9.306;2023-11-19T04:30:35;1.67;;;1.57;;
4652;SDS011;9900;48.738;9.306;2023-11-19T04:33:05;1.80;;;1.70;;
4652;SDS011;9900;48.738;9.306;2023-11-19T04:35:34;2.10;;;1.90;;
4652;SDS011;9900;48.738;9.306;2023-11-19T04:38:02;2.93;;;1.73;;
4652;SDS011;9900;48.738;9.306;2023-11-19T04:40:31;3.00;;;1.93;;
4652;SDS011;9900;48.738;9.306;2023-11-19T04:43:01;2.93;;;1.77;;
4652;SDS011;9900;48.738;9.306;2023-11-19T04:45:31;3.20;;;1.67;;
4652;SDS011;9900;48.738;9.306;2023-11-19T04:48:00;2.50;;;2.13;;
4652;SDS011;9900;48.738;9.306;2023-11-19T04:50:29;3.07;;;2.17;;
4652;SDS011;9900;48.738;9.306;2023-11-19T04:52:57;3.13;;;2.33;;
4652;SDS011;9900;48.738;9.306;2023-11-19T04:55:27;3.37;;;2.33;;
4652;SDS011;9900;48.738;9.306;2023-11-19T04:57:56;3.43;;;2.20;;
4652;SDS011;9900;48.738;9.306;2023-11-19T05:00:25;3.17;;;2.63;;
4652;SDS011;9900;48.738;9.306;2023-11-19T05:02:55;2.50;;;2.30;;
4652;SDS011;9900;48.738;9.306;2023-11-19T05:05:24;2.03;;;1.63;;
4652;SDS011;9900;48.738;9.306;2023-11-19T05:07:53;2.23;;;2.03;;
4652;SDS011;9900;48.738;9.306;2023-11-19T05:10:22;2.23;;;2.03;;
4652;SDS011;9900;48.738;9.306;2023-11-19T05:12:52;2.40;;;2.20;;
4652;SDS011;9900;48.738;9.306;2023-11-19T05:15:23;2.30;;;2.10;;
4652;SDS011;9900;48.738;9.306;2023-11-19T05:17:52;2.57;;;2.37;;
4652;SDS011;9900;48.738;9.306;2023-11-19T05:20:22;2.60;;;2.40;;
4652;SDS011;9900;48.738;9.306;2023-11-19T05:22:51;3.30;;;2.10;;
4652;SDS011;9900;48.738;9.306;2023-11-19T05:25:20;3.27;;;3.07;;
4652;SDS011;9900;48.738;9.306;2023-11-19T05:27:49;2.53;;;2.30;;
4652;SDS011;9900;48.738;9.306;2023-11-19T05:30:18;6.67;;;2.70;;
4652;SDS011;9900;48.738;9.306;2023-11-19T05:32:46;3.03;;;2.20;;
4652;SDS011;9900;48.738;9.306;2023-11-19T05:35:15;2.33;;;2.13;;
4652;SDS011;9900;48.738;9.306;2023-11-19T05:37:45;2.70;;;2.07;;
4652;SDS011;9900;48.738;9.306;2023-11-19T05:40:14;2.43;;;1.90;;
4652;SDS011;9900;48.738;9.306;2023-11-19T05:42:46;2.50;;;1.50;;
4652;SDS011;9900;48.738;9.306;2023-11-19T05:45:14;3.77;;;2.03;;
4652;SDS011;9900;48.738;9.306;2023-11-19T05:47:43;2.90;;;1.97;;
4652;SDS011;9900;48.738;9.306;2023-11-19T05:50:12;2.70;;;2.10;;
4652;SDS011;9900;48.738;9.306;2023-11-19T05:52:43;1.50;;;1.40;;
4652;SDS011;9900;48.738;9.306;2023-11-19T05:55:14;2.03;;;1.40;;
4652;SDS011;9900;48.738;9.306;2023-11-19T05:57:42;1.13;;;1.03;;
4652;SDS011;9900;48.738;9.306;2023-11-19T06:00:13;1.73;;;0.60;;
4652;SDS011;9900;48.738;9.306;2023-11-19T06:02:43;0.80;;;0.60;;
4652;SDS011;9900;48.738;9.306;2023-11-19T06:05:12;1.00;;;0.70;;
4652;SDS011;9900;48.738;9.306;2023-11-19T06:07:41;0.67;;;0.53;;
4652;SDS011;9900;48.738;9.306;2023-11-19T06:10:11;0.60;;;0.50;;
4652;SDS011;9900;48.738;9.306;2023-11-19T06:12:44;0.60;;;0.50;;
4652;SDS011;9900;48.738;9.306;2023-11-19T06:15:13;0.60;;;0.50;;
4652;SDS011;9900;48.738;9.306;2023-11-19T06:17:42;2.03;;;0.53;;
4652;SDS011;9900;48.738;9.306;2023-11-19T06:20:11;2.20;;;0.60;;
4652;SDS011;9900;48.738;9.306;2023-11-19T06:22:41;1.83;;;0.50;;
4652;SDS011;9900;48.738;9.306;2023-11-19T06:25:12;1.50;;;0.53;;
4652;SDS011;9900;48.738;9.306;2023-11-19T06:27:42;0.60;;;0.50;;
4652;SDS011;9900;48.738;9.306;2023-11-19T06:30:11;0.63;;;0.60;;
4652;SDS011;9900;48.738;9.306;2023-11-19T06:32:40;1.17;;;0.50;;
4652;SDS011;9900;48.738;9.306;2023-11-19T06:35:09;2.73;;;0.57;;
4652;SDS011;9900;48.738;9.306;2023-11-19T06:37:38;0.73;;;0.60;;
4652;SDS011;9900;48.738;9.306;2023-11-19T06:40:07;0.70;;;0.60;;
4652;SDS011;9900;48.738;9.306;2023-11-19T06:42:38;0.60;;;0.50;;
4652;SDS011;9900;48.738;9.306;2023-11-19T06:45:07;0.90;;;0.70;;
4652;SDS011;9900;48.738;9.306;2023-11-19T06:47:36;0.60;;;0.50;;
4652;SDS011;9900;48.738;9.306;2023-11-19T06:50:06;0.60;;;0.50;;
4652;SDS011;9900;48.738;9.306;2023-11-19T06:52:36;0.60;;;0.43;;
4652;SDS011;9900;48.738;9.306;2023-11-19T06:55:06;2.00;;;0.50;;
4652;SDS011;9900;48.738;9.306;2023-11-19T06:57:36;0.60;;;0.53;;
4652;SDS011;9900;48.738;9.306;2023-11-19T07:00:07;0.80;;;0.57;;
4652;SDS011;9900;48.738;9.306;2023-11-19T07:02:36;0.80;;;0.60;;
4652;SDS011;9900;48.738;9.306;2023-11-19T07:05:06;2.43;;;0.60;;
4652;SDS011;9900;48.738;9.306;2023-11-19T07:07:35;0.70;;;0.60;;
4652;SDS011;9900;48.738;9.306;2023-11-19T07:10:05;2.20;;;0.50;;
4652;SDS011;9900;48.738;9.306;2023-11-19T07:12:37;3.53;;;0.60;;
4652;SDS011;9900;48.738;9.306;2023-11-19T07:15:08;0.70;;;0.57;;
4652;SDS011;9900;48.738;9.306;2023-11-19T07:17:38;0.77;;;0.70;;
4652;SDS011;9900;48.738;9.306;2023-11-19T07:20:08;0.73;;;0.63;;
4652;SDS011;9900;48.738;9.306;2023-11-19T07:22:36;0.70;;;0.60;;
4652;SDS011;9900;48.738;9.306;2023-11-19T07:25:06;3.93;;;0.67;;
4652;SDS011;9900;48.738;9.306;2023-11-19T07:27:35;1.33;;;0.60;;
4652;SDS011;9900;48.738;9.306;2023-11-19T07:30:05;0.67;;;0.60;;
4652;SDS011;9900;48.738;9.306;2023-11-19T07:32:36;0.70;;;0.50;;
4652;SDS011;9900;48.738;9.306;2023-11-19T07:35:06;1.17;;;0.50;;
4652;SDS011;9900;48.738;9.306;2023-11-19T07:37:36;0.90;;;0.60;;
4652;SDS011;9900;48.738;9.306;2023-11-19T07:40:05;1.70;;;0.70;;
4652;SDS011;9900;48.738;9.306;2023-11-19T07:42:35;2.23;;;0.57;;
4652;SDS011;9900;48.738;9.306;2023-11-19T07:45:05;1.00;;;0.70;;
4652;SDS011;9900;48.738;9.306;2023-11-19T07:47:36;0.70;;;0.60;;
4652;SDS011;9900;48.738;9.306;2023-11-19T07:50:06;1.80;;;0.70;;
4652;SDS011;9900;48.738;9.306;2023-11-19T07:52:35;0.80;;;0.70;;
4652;SDS011;9900;48.738;9.306;2023-11-19T07:55:05;0.70;;;0.60;;
4652;SDS011;9900;48.738;9.306;2023-11-19T07:57:34;0.77;;;0.70;;
4652;SDS011;9900;48.738;9.306;2023-11-19T08:00:04;0.60;;;0.57;;
4652;SDS011;9900;48.738;9.306;2023-11-19T08:02:34;0.60;;;0.60;;
4652;SDS011;9900;48.738;9.306;2023-11-19T08:05:04;0.67;;;0.50;;
4652;SDS011;9900;48.738;9.306;2023-11-19T08:07:33;0.80;;;0.60;;
4652;SDS011;9900;48.738;9.306;2023-11-19T08:10:02;0.60;;;0.50;;
4652;SDS011;9900;48.738;9.306;2023-11-19T08:12:32;0.70;;;0.60;;
4652;SDS011;9900;48.738;9.306;2023-11-19T08:15:02;0.90;;;0.70;;
4652;SDS011;9900;48.738;9.306;2023-11-19T08:17:32;0.60;;;0.50;;
4652;SDS011;9900;48.738;9.306;2023-11-19T08:20:02;1.13;;;0.70;;
4652;SDS011;9900;48.738;9.306;2023-11-19T08:22:32;0.83;;;0.50;;
4652;SDS011;9900;48.738;9.306;2023-11-19T08:25:01;2.20;;;0.80;;
4652;SDS011;9900;48.738;9.306;2023-11-19T08:27:30;0.83;;;0.60;;
4652;SDS011;9900;48.738;9.306;2023-11-19T08:29:59;0.70;;;0.60;;
4652;SDS011;9900;48.738;9.306;2023-11-19T08:32:28;1.27;;;0.83;;
4652;SDS011;9900;48.738;9.306;2023-11-19T08:34:57;0.80;;;0.63;;
4652;SDS011;9900;48.738;9.306;2023-11-19T08:37:27;1.27;;;1.00;;
4652;SDS011;9900;48.738;9.306;2023-11-19T08:39:56;0.73;;;0.73;;
4652;SDS011;9900;48.738;9.306;2023-11-19T08:42:24;1.63;;;0.70;;
4652;SDS011;9900;48.738;9.306;2023-11-19T08:44:53;1.00;;;0.70;;
4652;SDS011;9900;48.738;9.306;2023-11-19T08:47:22;0.90;;;0.80;;
4652;SDS011;9900;48.738;9.306;2023-11-19T08:49:51;1.17;;;0.70;;
4652;SDS011;9900;48.738;9.306;2023-11-19T08:52:23;0.70;;;0.60;;
4652;SDS011;9900;48.738;9.306;2023-11-19T08:54:54;1.30;;;0.70;;
4652;SDS011;9900;48.738;9.306;2023-11-19T08:57:23;1.00;;;0.90;;
4652;SDS011;9900;48.738;9.306;2023-11-19T08:59:52;2.30;;;0.70;;
4652;SDS011;9900;48.738;9.306;2023-11-19T09:02:20;0.90;;;0.70;;
4652;SDS011;9900;48.738;9.306;2023-11-19T09:04:49;1.83;;;0.70;;
4652;SDS011;9900;48.738;9.306;2023-11-19T09:07:20;1.83;;;0.70;;
4652;SDS011;9900;48.738;9.306;2023-11-19T09:09:49;0.70;;;0.60;;
4652;SDS011;9900;48.738;9.306;2023-11-19T09:12:19;1.00;;;0.70;;
4652;SDS011;9900;48.738;9.306;2023-11-19T09:14:48;1.47;;;0.70;;
4652;SDS011;9900;48.738;9.306;2023-11-19T09:17:17;2.73;;;0.60;;
4652;SDS011;9900;48.738;9.306;2023-11-19T09:19:46;0.93;;;0.80;;
4652;SDS011;9900;48.738;9.306;2023-11-19T09:22:15;0.80;;;0.70;;
4652;SDS011;9900;48.738;9.306;2023-11-19T09:24:44;0.80;;;0.57;;
4652;SDS011;9900;48.738;9.306;2023-11-19T09:27:13;0.87;;;0.87;;
4652;SDS011;9900;48.738;9.306;2023-11-19T09:29:43;4.10;;;0.87;;
4652;SDS011;9900;48.738;9.306;2023-11-19T09:32:14;1.87;;;0.73;;
4652;SDS011;9900;48.738;9.306;2023-11-19T09:34:42;1.00;;;0.70;;
4652;SDS011;9900;48.738;9.306;2023-11-19T09:37:11;0.70;;;0.70;;
4652;SDS011;9900;48.738;9.306;2023-11-19T09:39:43;0.80;;;0.70;;
4652;SDS011;9900;48.738;9.306;2023-11-19T09:42:12;0.80;;;0.60;;
4652;SDS011;9900;48.738;9.306;2023-11-19T09:44:41;0.80;;;0.80;;
4652;SDS011;9900;48.738;9.306;2023-11-19T09:47:12;1.00;;;0.70;;
4652;SDS011;9900;48.738;9.306;2023-11-19T09:49:42;1.50;;;0.80;;
4652;SDS011;9900;48.738;9.306;2023-11-19T09:52:12;1.30;;;0.80;;
4652;SDS011;9900;48.738;9.306;2023-11-19T09:54:41;1.47;;;0.80;;
4652;SDS011;9900;48.738;9.306;2023-11-19T09:57:09;1.00;;;0.80;;
4652;SDS011;9900;48.738;9.306;2023-11-19T09:59:39;2.80;;;0.80;;
4652;SDS011;9900;48.738;9.306;2023-11-19T10:02:10;1.40;;;0.93;;
4652;SDS011;9900;48.738;9.306;2023-11-19T10:04:39;0.73;;;0.60;;
4652;SDS011;9900;48.738;9.306;2023-11-19T10:07:11;4.60;;;1.00;;
4652;SDS011;9900;48.738;9.306;2023-11-19T10:09:40;1.00;;;0.90;;
4652;SDS011;9900;48.738;9.306;2023-11-19T10:12:09;0.87;;;0.80;;
4652;SDS011;9900;48.738;9.306;2023-11-19T10:14:38;1.73;;;0.90;;
4652;SDS011;9900;48.738;9.306;2023-11-19T10:17:08;2.03;;;0.90;;
4652;SDS011;9900;48.738;9.306;2023-11-19T10:19:38;1.20;;;0.70;;
4652;SDS011;9900;48.738;9.306;2023-11-19T10:22:08;1.37;;;0.97;;
4652;SDS011;9900;48.738;9.306;2023-11-19T10:24:37;0.83;;;0.70;;
4652;SDS011;9900;48.738;9.306;2023-11-19T10:27:15;0.80;;;0.60;;
4652;SDS011;9900;48.738;9.306;2023-11-19T10:29:44;0.70;;;0.70;;
4652;SDS011;9900;48.738;9.306;2023-11-19T10:32:14;1.20;;;1.00;;
4652;SDS011;9900;48.738;9.306;2023-11-19T10:35:05;1.20;;;0.90;;
4652;SDS011;9900;48.738;9.306;2023-11-19T10:37:34;1.10;;;0.70;;
4652;SDS011;9900;48.738;9.306;2023-11-19T10:40:05;0.90;;;0.77;;
4652;SDS011;9900;48.738;9.306;2023-11-19T10:42:37;2.10;;;0.80;;
4652;SDS011;9900;48.738;9.306;2023-11-19T10:45:16;1.70;;;0.90;;
4652;SDS011;9900;48.738;9.306;2023-11-19T10:47:51;1.00;;;0.77;;
4652;SDS011;9900;48.738;9.306;2023-11-19T10:50:21;1.07;;;0.80;;
4652;SDS011;9900;48.738;9.306;2023-11-19T10:52:51;1.43;;;1.00;;
4652;SDS011;9900;48.738;9.306;2023-11-19T10:55:25;1.10;;;1.00;;
4652;SDS011;9900;48.738;9.306;2023-11-19T10:58:00;0.90;;;0.80;;
4652;SDS011;9900;48.738;9.306;2023-11-19T11:00:33;1.00;;;0.70;;
4652;SDS011;9900;48.738;9.306;2023-11-19T11:03:06;1.53;;;0.80;;
4652;SDS011;9900;48.738;9.306;2023-11-19T11:05:39;2.00;;;0.60;;
4652;SDS011;9900;48.738;9.306;2023-11-19T11:08:09;0.70;;;0.50;;
4652;SDS011;9900;48.738;9.306;2023-11-19T11:10:39;0.70;;;0.60;;
4652;SDS011;9900;48.738;9.306;2023-11-19T11:13:14;1.77;;;0.70;;
4652;SDS011;9900;48.738;9.306;2023-11-19T11:15:43;3.00;;;1.00;;
4652;SDS011;9900;48.738;9.306;2023-11-19T11:18:14;4.13;;;0.80;;
4652;SDS011;9900;48.738;9.306;2023-11-19T11:20:45;1.57;;;1.00;;
4652;SDS011;9900;48.738;9.306;2023-11-19T11:23:22;0.90;;;0.77;;
4652;SDS011;9900;48.738;9.306;2023-11-19T11:26:05;2.93;;;0.93;;
4652;SDS011;9900;48.738;9.306;2023-11-19T11:28:46;1.23;;;0.80;;
4652;SDS011;9900;48.738;9.306;2023-11-19T11:31:23;1.10;;;0.70;;
4652;SDS011;9900;48.738;9.306;2023-11-19T11:34:05;2.07;;;0.70;;
4652;SDS011;9900;48.738;9.306;2023-11-19T11:36:44;5.80;;;0.70;;
4652;SDS011;9900;48.738;9.306;2023-11-19T11:39:18;0.90;;;0.73;;
4652;SDS011;9900;48.738;9.306;2023-11-19T11:44:59;1.47;;;0.90;;
4652;SDS011;9900;48.738;9.306;2023-11-19T11:50:33;1.63;;;0.90;;
4652;SDS011;9900;48.738;9.306;2023-11-19T11:53:19;1.63;;;0.80;;
4652;SDS011;9900;48.738;9.306;2023-11-19T11:55:52;1.20;;;0.70;;
4652;SDS011;9900;48.738;9.306;2023-11-19T11:58:25;0.87;;;0.63;;
4652;SDS011;9900;48.738;9.306;2023-11-19T12:00:56;1.27;;;0.70;;
4652;SDS011;9900;48.738;9.306;2023-11-19T12:03:26;0.83;;;0.83;;
4652;SDS011;9900;48.738;9.306;2023-11-19T12:05:56;0.90;;;0.70;;
4652;SDS011;9900;48.738;9.306;2023-11-19T12:08:28;1.00;;;0.60;;
4652;SDS011;9900;48.738;9.306;2023-11-19T12:10:58;1.43;;;0.70;;
4652;SDS011;9900;48.738;9.306;2023-11-19T12:13:29;1.40;;;0.70;;
4652;SDS011;9900;48.738;9.306;2023-11-19T12:16:12;2.80;;;0.70;;
4652;SDS011;9900;48.738;9.306;2023-11-19T12:18:41;2.90;;;0.77;;
4652;SDS011;9900;48.738;9.306;2023-11-19T12:21:10;1.07;;;0.70;;
4652;SDS011;9900;48.738;9.306;2023-11-19T12:23:46;0.80;;;0.70;;
4652;SDS011;9900;48.738;9.306;2023-11-19T12:26:32;2.53;;;0.80;;
4652;SDS011;9900;48.738;9.306;2023-11-19T12:29:02;0.90;;;0.70;;
4652;SDS011;9900;48.738;9.306;2023-11-19T12:31:37;3.90;;;1.00;;
4652;SDS011;9900;48.738;9.306;2023-11-19T12:34:09;1.57;;;0.60;;
4652;SDS011;9900;48.738;9.306;2023-11-19T12:36:40;5.57;;;0.90;;
4652;SDS011;9900;48.738;9.306;2023-11-19T12:39:14;2.03;;;0.77;;
4652;SDS011;9900;48.738;9.306;2023-11-19T12:44:32;0.90;;;0.70;;
4652;SDS011;9900;48.738;9.306;2023-11-19T12:47:02;1.43;;;0.77;;
4652;SDS011;9900;48.738;9.306;2023-11-19T12:49:32;1.23;;;0.80;;
4652;SDS011;9900;48.738;9.306;2023-11-19T12:52:01;1.73;;;0.70;;
4652;SDS011;9900;48.738;9.306;2023-11-19T12:54:35;6.10;;;1.47;;
4652;SDS011;9900;48.738;9.306;2023-11-19T12:57:04;1.20;;;0.80;;
4652;SDS011;9900;48.738;9.306;2023-11-19T12:59:33;5.63;;;0.60;;
4652;SDS011;9900;48.738;9.306;2023-11-19T13:02:02;2.90;;;0.80;;
4652;SDS011;9900;48.738;9.306;2023-11-19T13:04:33;0.93;;;0.70;;
4652;SDS011;9900;48.738;9.306;2023-11-19T13:07:02;2.00;;;0.80;;
4652;SDS011;9900;48.738;9.306;2023-11-19T13:09:34;1.83;;;0.70;;
4652;SDS011;9900;48.738;9.306;2023-11-19T13:12:12;1.47;;;0.90;;
4652;SDS011;9900;48.738;9.306;2023-11-19T13:14:42;1.43;;;0.80;;
4652;SDS011;9900;48.738;9.306;2023-11-19T13:17:14;2.07;;;0.80;;
4652;SDS011;9900;48.738;9.306;2023-11-19T13:19:43;2.00;;;0.80;;
4652;SDS011;9900;48.738;9.306;2023-11-19T13:22:12;1.67;;;0.90;;
4652;SDS011;9900;48.738;9.306;2023-11-19T13:24:42;2.13;;;0.87;;
4652;SDS011;9900;48.738;9.306;2023-11-19T13:27:11;1.10;;;0.70;;
4652;SDS011;9900;48.738;9.306;2023-11-19T13:29:41;1.00;;;0.80;;
4652;SDS011;9900;48.738;9.306;2023-11-19T13:32:11;5.90;;;0.80;;
4652;SDS011;9900;48.738;9.306;2023-11-19T13:34:39;1.47;;;0.70;;
4652;SDS011;9900;48.738;9.306;2023-11-19T13:37:08;2.43;;;0.80;;
4652;SDS011;9900;48.738;9.306;2023-11-19T13:39:42;1.57;;;0.60;;
4652;SDS011;9900;48.738;9.306;2023-11-19T13:42:12;1.53;;;0.80;;
4652;SDS011;9900;48.738;9.306;2023-11-19T13:44:40;1.00;;;0.80;;
4652;SDS011;9900;48.738;9.306;2023-11-19T13:47:09;1.20;;;0.80;;
4652;SDS011;9900;48.738;9.306;2023-11-19T13:49:41;2.13;;;0.70;;
4652;SDS011;9900;48.738;9.306;2023-11-19T13:52:09;1.63;;;0.90;;
4652;SDS011;9900;48.738;9.306;2023-11-19T13:54:38;3.30;;;0.90;;
4652;SDS011;9900;48.738;9.306;2023-11-19T13:57:09;0.90;;;0.70;;
4652;SDS011;9900;48.738;9.306;2023-11-19T13:59:39;1.00;;;0.70;;
4652;SDS011;9900;48.738;9.306;2023-11-19T14:02:08;1.20;;;0.80;;
4652;SDS011;9900;48.738;9.306;2023-11-19T14:04:37;1.83;;;0.70;;
4652;SDS011;9900;48.738;9.306;2023-11-19T14:07:06;2.47;;;0.77;;
4652;SDS011;9900;48.738;9.306;2023-11-19T14:09:35;1.27;;;0.67;;
4652;SDS011;9900;48.738;9.306;2023-11-19T14:12:04;0.93;;;0.53;;
4652;SDS011;9900;48.738;9.306;2023-11-19T14:14:34;1.20;;;0.70;;
4652;SDS011;9900;48.738;9.306;2023-11-19T14:17:03;0.90;;;0.70;;
4652;SDS011;9900;48.738;9.306;2023-11-19T14:19:35;1.37;;;0.80;;
4652;SDS011;9900;48.738;9.306;2023-11-19T14:22:05;0.80;;;0.60;;
4652;SDS011;9900;48.738;9.306;2023-11-19T14:24:35;3.70;;;0.90;;
4652;SDS011;9900;48.738;9.306;2023-11-19T14:27:04;2.03;;;0.73;;
4652;SDS011;9900;48.738;9.306;2023-11-19T14:29:34;2.20;;;0.70;;
4652;SDS011;9900;48.738;9.306;2023-11-19T14:32:04;2.43;;;1.00;;
4652;SDS011;9900;48.738;9.306;2023-11-19T14:34:33;1.40;;;0.90;;
4652;SDS011;9900;48.738;9.306;2023-11-19T14:37:02;3.63;;;0.80;;
4652;SDS011;9900;48.738;9.306;2023-11-19T14:39:31;3.33;;;0.90;;
4652;SDS011;9900;48.738;9.306;2023-11-19T14:42:00;3.93;;;1.40;;
4652;SDS011;9900;48.738;9.306;2023-11-19T14:44:32;1.53;;;0.80;;
4652;SDS011;9900;48.738;9.306;2023-11-19T14:47:03;2.40;;;0.80;;
4652;SDS011;9900;48.738;9.306;2023-11-19T14:49:34;3.50;;;1.00;;
4652;SDS011;9900;48.738;9.306;2023-11-19T14:52:04;1.63;;;0.80;;
4652;SDS011;9900;48.738;9.306;2023-11-19T14:54:36;1.90;;;0.80;;
4652;SDS011;9900;48.738;9.306;2023-11-19T14:57:05;1.73;;;0.80;;
4652;SDS011;9900;48.738;9.306;2023-11-19T14:59:35;2.40;;;0.80;;
4652;SDS011;9900;48.738;9.306;2023-11-19T15:02:06;2.10;;;0.83;;
4652;SDS011;9900;48.738;9.306;2023-11-19T15:04:37;4.00;;;0.70;;
4652;SDS011;9900;48.738;9.306;2023-11-19T15:07:06;3.40;;;0.93;;
4652;SDS011;9900;48.738;9.306;2023-11-19T15:09:34;1.33;;;1.00;;
4652;SDS011;9900;48.738;9.306;2023-11-19T15:12:04;1.40;;;0.80;;
4652;SDS011;9900;48.738;9.306;2023-11-19T15:14:34;0.80;;;0.70;;
4652;SDS011;9900;48.738;9.306;2023-11-19T15:17:03;5.57;;;0.80;;
4652;SDS011;9900;48.738;9.306;2023-11-19T15:19:34;4.13;;;0.80;;
4652;SDS011;9900;48.738;9.306;2023-11-19T15:22:03;2.80;;;0.80;;
4652;SDS011;9900;48.738;9.306;2023-11-19T15:24:32;1.97;;;0.80;;
4652;SDS011;9900;48.738;9.306;2023-11-19T15:27:04;1.43;;;1.07;;
4652;SDS011;9900;48.738;9.306;2023-11-19T15:29:36;1.27;;;0.80;;
4652;SDS011;9900;48.738;9.306;2023-11-19T15:32:06;3.07;;;0.80;;
4652;SDS011;9900;48.738;9.306;2023-11-19T15:34:37;1.20;;;0.77;;
4652;SDS011;9900;48.738;9.306;2023-11-19T15:37:07;3.17;;;0.80;;
4652;SDS011;9900;48.738;9.306;2023-11-19T15:39:36;1.43;;;0.90;;
4652;SDS011;9900;48.738;9.306;2023-11-19T15:42:04;2.50;;;0.70;;